Time;durP1;ratioP1;P1;durP2;ratioP2;P2;SDS_P1;SDS_P2;PMS_P1;PMS_P2;Temp;Humidity;BMP_temperature;BMP_pressure;BME280_temperature;BME280_humidity;BME280_pressure;Samples;Min_cycle;Max_cycle;Signal;HPM_P1;HPM_P2
2021/10/13 00:02:05;;;;;;;;;;;;;;;2.89;100.00;100989.41;5092948;28;19924;-69
2021/10/13 00:04:31;;;;;;;;;;;;;;;2.88;100.00;100988.53;5092876;28;19924;-70
2021/10/13 00:06:58;;;;;;;;;;;;;;;2.84;100.00;100986.94;5092869;28;19924;-69
2021/10/13 00:09:25;;;;;;;;;;;;;;;2.79;100.00;100986.25;5092827;28;20066;-69
2021/10/13 00:11:51;;;;;;;;;;;;;;;2.72;100.00;100991.03;5091640;28;19963;-69
2021/10/13 00:14:17;;;;;;;;;;;;;;;2.65;100.00;100990.41;5092670;28;20026;-70
2021/10/13 00:16:52;;;;;;;;;;;;;;;2.63;100.00;100994.09;5092743;28;20348;-69
2021/10/13 00:19:18;;;;;;;;;;;;;;;2.61;100.00;100991.50;5092843;28;19977;-69
2021/10/13 00:21:44;;;;;;;;;;;;;;;2.66;100.00;100999.34;5092748;28;19931;-69
2021/10/13 00:24:12;;;;;;;;;;;;;;;2.67;100.00;101003.75;5092672;28;20348;-69
2021/10/13 00:26:38;;;;;;;;;;;;;;;2.68;100.00;101002.81;5092582;28;19959;-69
2021/10/13 00:29:04;;;;;;;;;;;;;;;2.62;100.00;101000.41;5092690;28;20050;-69
2021/10/13 00:31:31;;;;;;;;;;;;;;;2.61;100.00;100998.69;5092627;28;19924;-69
2021/10/13 00:33:57;;;;;;;;;;;;;;;2.62;100.00;101013.78;5092426;28;20006;-69
2021/10/13 00:36:23;;;;;;;;;;;;;;;2.62;100.00;101001.28;5092307;28;19928;-69
2021/10/13 00:38:49;;;;;;;;;;;;;;;2.68;100.00;101002.81;5092118;28;19924;-69
2021/10/13 00:41:17;;;;;;;;;;;;;;;2.67;100.00;101001.97;5092290;28;19924;-69
2021/10/13 00:43:43;;;;;;;;;;;;;;;2.68;100.00;101002.81;5092170;28;20015;-69
2021/10/13 00:46:10;;;;;;;;;;;;;;;2.70;100.00;101000.97;5092262;28;20015;-69
2021/10/13 00:48:36;;;;;;;;;;;;;;;2.69;100.00;100996.53;5092053;28;19928;-69
2021/10/13 00:51:02;;;;;;;;;;;;;;;2.68;100.00;101005.50;5091054;28;20585;-69
2021/10/13 00:53:28;;;;;;;;;;;;;;;2.66;100.00;101000.22;5092202;28;20018;-69
2021/10/13 00:55:56;;;;;;;;;;;;;;;2.65;100.00;101008.31;5090520;28;19930;-69
2021/10/13 00:58:24;;;;;;;;;;;;;;;2.62;100.00;101001.28;5092110;28;19932;-69
2021/10/13 01:00:56;;;;;;;;;;;;;;;2.59;100.00;101004.09;5092125;28;19924;-69
2021/10/13 01:03:28;;;;;;;;;;;;;;;2.55;100.00;101006.97;5092098;28;20031;-69
2021/10/13 01:05:59;;;;;;;;;;;;;;;2.49;100.00;101011.66;5091795;28;20022;-69
2021/10/13 01:08:30;;;;;;;;;;;;;;;2.46;100.00;101009.13;5091913;28;20328;-69
2021/10/13 01:11:03;;;;;;;;;;;;;;;2.44;100.00;101005.63;5091784;28;19923;-69
2021/10/13 01:13:38;;;;;;;;;;;;;;;2.40;100.00;101013.88;5091846;28;19924;-69
2021/10/13 01:16:09;;;;;;;;;;;;;;;2.34;100.00;101015.00;5091556;28;20453;-69
2021/10/13 01:18:37;;;;;;;;;;;;;;;2.34;100.00;101015.88;5091617;28;20038;-69
2021/10/13 01:21:08;;;;;;;;;;;;;;;2.31;100.00;101016.00;5090314;28;20031;-69
2021/10/13 01:23:43;;;;;;;;;;;;;;;2.33;100.00;101024.84;5091636;28;20010;-69
2021/10/13 01:26:15;;;;;;;;;;;;;;;2.28;100.00;101021.47;5090925;28;20015;-69
2021/10/13 01:28:45;;;;;;;;;;;;;;;2.25;100.00;101028.78;5094269;28;19928;-69
2021/10/13 01:31:15;;;;;;;;;;;;;;;2.27;100.00;101029.56;5091473;28;19924;-69
2021/10/13 01:33:43;;;;;;;;;;;;;;;2.30;100.00;101033.00;5091609;28;19931;-69
2021/10/13 01:36:11;;;;;;;;;;;;;;;2.28;100.00;101037.53;5091102;28;20302;-69
2021/10/13 01:38:39;;;;;;;;;;;;;;;2.30;100.00;101034.84;5091330;28;19930;-69
2021/10/13 01:41:06;;;;;;;;;;;;;;;2.34;100.00;101039.13;5091301;28;20027;-69
2021/10/13 01:43:35;;;;;;;;;;;;;;;2.39;100.00;101037.09;5090100;28;19924;-69
2021/10/13 01:46:03;;;;;;;;;;;;;;;2.40;100.00;101037.97;5091123;28;19959;-69
2021/10/13 01:48:32;;;;;;;;;;;;;;;2.45;100.00;101041.34;5091249;28;19963;-69
2021/10/13 01:50:58;;;;;;;;;;;;;;;2.47;100.00;101043.03;5091238;28;19939;-69
2021/10/13 01:53:25;;;;;;;;;;;;;;;2.53;100.00;101051.75;5090920;28;20023;-69
2021/10/13 01:55:53;;;;;;;;;;;;;;;2.55;100.00;101050.72;5089772;28;20026;-69
2021/10/13 01:58:21;;;;;;;;;;;;;;;2.57;100.00;101050.69;5091294;28;20019;-69
2021/10/13 02:00:48;;;;;;;;;;;;;;;2.55;100.00;101055.22;5091140;28;19959;-69
2021/10/13 02:03:18;;;;;;;;;;;;;;;2.59;100.00;101054.16;5091103;28;20268;-69
2021/10/13 02:05:45;;;;;;;;;;;;;;;2.68;100.00;101051.06;5091103;28;20014;-69
2021/10/13 02:08:12;;;;;;;;;;;;;;;2.83;100.00;101055.78;5091016;28;19981;-69
2021/10/13 02:10:39;;;;;;;;;;;;;;;2.94;100.00;101057.09;5090613;28;19974;-68
2021/10/13 02:13:07;;;;;;;;;;;;;;;3.04;100.00;101063.81;5091226;28;20336;-69
2021/10/13 02:15:34;;;;;;;;;;;;;;;3.14;100.00;101059.78;5091177;28;20366;-69
2021/10/13 02:18:01;;;;;;;;;;;;;;;3.18;100.00;101060.53;5090919;28;20415;-69
2021/10/13 02:20:29;;;;;;;;;;;;;;;3.22;100.00;101061.25;5091040;28;20347;-69
2021/10/13 02:22:56;;;;;;;;;;;;;;;3.24;100.00;101062.91;5090770;28;20340;-69
2021/10/13 02:25:23;;;;;;;;;;;;;;;3.22;100.00;101062.13;5090976;28;19974;-69
2021/10/13 02:27:51;;;;;;;;;;;;;;;3.22;100.00;101061.25;5090741;28;20363;-69
2021/10/13 02:30:18;;;;;;;;;;;;;;;3.21;100.00;101064.84;5090510;28;19960;-69
2021/10/13 02:32:44;;;;;;;;;;;;;;;3.22;100.00;101062.13;5090886;28;20014;-69
2021/10/13 02:35:10;;;;;;;;;;;;;;;3.22;100.00;101066.59;5091213;28;19959;-69
2021/10/13 02:37:38;;;;;;;;;;;;;;;3.22;100.00;101071.97;5091189;28;20014;-69
2021/10/13 02:40:05;;;;;;;;;;;;;;;3.19;100.00;101062.25;5094536;28;19928;-69
2021/10/13 02:42:32;;;;;;;;;;;;;;;3.15;100.00;101072.25;5094745;28;19959;-69
2021/10/13 02:44:59;;;;;;;;;;;;;;;3.06;100.00;101069.09;5094743;28;19955;-69
2021/10/13 02:47:28;;;;;;;;;;;;;;;2.95;100.00;101072.25;5094416;28;20015;-69
2021/10/13 02:49:59;;;;;;;;;;;;;;;2.84;100.00;101084.31;5094010;28;20038;-69
2021/10/13 02:52:28;;;;;;;;;;;;;;;2.73;100.00;101080.38;5094555;28;20360;-69
2021/10/13 02:54:59;;;;;;;;;;;;;;;2.64;100.00;101081.63;5094270;28;20038;-69
2021/10/13 02:57:28;;;;;;;;;;;;;;;2.55;100.00;101088.22;5094385;28;19924;-69
2021/10/13 02:59:55;;;;;;;;;;;;;;;2.48;100.00;101084.09;5094228;28;20390;-69
2021/10/13 03:02:25;;;;;;;;;;;;;;;2.39;100.00;101089.81;5094455;28;19968;-69
2021/10/13 03:04:53;;;;;;;;;;;;;;;2.31;100.00;101088.34;5093739;28;20387;-69
2021/10/13 03:07:21;;;;;;;;;;;;;;;2.25;100.00;101093.94;5094107;28;19967;-69
2021/10/13 03:09:50;;;;;;;;;;;;;;;2.21;100.00;101099.50;5094002;28;19928;-69
2021/10/13 03:12:20;;;;;;;;;;;;;;;2.15;100.00;101106.84;5094074;28;20352;-69
2021/10/13 03:14:48;;;;;;;;;;;;;;;2.11;100.00;101105.22;5093950;28;19924;-69
2021/10/13 03:17:16;;;;;;;;;;;;;;;2.05;100.00;101116.16;5093886;28;19974;-69
2021/10/13 03:19:43;;;;;;;;;;;;;;;2.00;100.00;101112.78;5093946;28;19939;-69
2021/10/13 03:22:09;;;;;;;;;;;;;;;2.00;100.00;101113.69;5093734;28;20438;-69
2021/10/13 03:24:36;;;;;;;;;;;;;;;2.00;100.00;101116.38;5096036;28;20023;-69
2021/10/13 03:27:02;;;;;;;;;;;;;;;2.07;100.00;101118.78;5093829;28;20454;-69
2021/10/13 03:29:30;;;;;;;;;;;;;;;2.15;100.00;101117.56;5093794;28;19975;-69
2021/10/13 03:31:56;;;;;;;;;;;;;;;2.23;100.00;101124.41;5093718;28;19967;-69
2021/10/13 03:34:22;;;;;;;;;;;;;;;2.29;100.00;101121.50;5093488;28;20121;-69
2021/10/13 03:36:50;;;;;;;;;;;;;;;2.32;100.00;101121.34;5093400;28;20400;-69
2021/10/13 03:39:16;;;;;;;;;;;;;;;2.38;100.00;101134.50;5091978;28;20007;-68
2021/10/13 03:41:43;;;;;;;;;;;;;;;2.44;100.00;101131.56;5091936;28;20031;-68
2021/10/13 03:44:10;;;;;;;;;;;;;;;2.50;100.00;101134.00;5093360;28;20039;-69
2021/10/13 03:46:38;;;;;;;;;;;;;;;2.57;100.00;101134.63;5093171;28;20015;-69
2021/10/13 03:49:04;;;;;;;;;;;;;;;2.63;100.00;101133.50;5092875;28;19928;-69
2021/10/13 03:51:31;;;;;;;;;;;;;;;2.71;100.00;101133.19;5093373;28;20018;-69
2021/10/13 03:53:57;;;;;;;;;;;;;;;2.78;100.00;101135.53;5093350;28;19997;-69
2021/10/13 03:56:23;;;;;;;;;;;;;;;2.84;100.00;101134.41;5094321;28;20023;-69
2021/10/13 03:58:49;;;;;;;;;;;;;;;2.90;100.00;101135.94;5093151;28;20022;-69
2021/10/13 04:01:16;;;;;;;;;;;;;;;2.91;100.00;101133.19;5091760;28;20011;-70
2021/10/13 04:03:44;;;;;;;;;;;;;;;2.93;100.00;101135.84;5092994;28;19977;-70
2021/10/13 04:06:10;;;;;;;;;;;;;;;2.95;100.00;101142.00;5100006;28;19934;-69
2021/10/13 04:08:37;;;;;;;;;;;;;;;2.97;100.00;101140.13;5101319;28;19928;-70
2021/10/13 04:11:03;;;;;;;;;;;;;;;2.95;100.00;101142.88;5092761;28;20367;-69
2021/10/13 04:13:29;;;;;;;;;;;;;;;2.95;100.00;101133.94;5091509;28;20391;-69
2021/10/13 04:15:55;;;;;;;;;;;;;;;2.95;100.00;101140.19;5092500;28;19959;-69
2021/10/13 04:18:22;;;;;;;;;;;;;;;2.96;100.00;101151.78;5093929;28;20010;-74
2021/10/13 04:20:49;;;;;;;;;;;;;;;2.97;100.00;101156.22;5091466;28;19935;-75
2021/10/13 04:23:16;;;;;;;;;;;;;;;2.99;100.00;101157.00;5092576;28;19978;-69
2021/10/13 04:25:42;;;;;;;;;;;;;;;2.99;100.00;101157.91;5101699;28;19931;-69
2021/10/13 04:28:09;;;;;;;;;;;;;;;2.97;100.00;101154.41;5098416;28;20022;-69
2021/10/13 04:30:37;;;;;;;;;;;;;;;2.97;100.00;101153.53;5092671;28;19924;-70
2021/10/13 04:33:03;;;;;;;;;;;;;;;2.95;100.00;101161.66;5092229;28;19924;-69
2021/10/13 04:35:29;;;;;;;;;;;;;;;2.94;100.00;101159.00;5092606;28;20019;-69
2021/10/13 04:37:57;;;;;;;;;;;;;;;2.94;100.00;101157.22;5091935;28;20007;-71
2021/10/13 04:40:23;;;;;;;;;;;;;;;2.96;100.00;101155.31;5092158;28;20019;-72
2021/10/13 04:42:50;;;;;;;;;;;;;;;3.00;100.00;101164.13;5091821;28;19947;-72
2021/10/13 04:45:16;;;;;;;;;;;;;;;3.05;100.00;101163.91;5092073;28;19970;-71
2021/10/13 04:47:42;;;;;;;;;;;;;;;3.09;100.00;101163.72;5091986;28;20011;-72
2021/10/13 04:50:09;;;;;;;;;;;;;;;3.14;100.00;101166.22;5091786;28;19983;-71
2021/10/13 04:52:35;;;;;;;;;;;;;;;3.18;100.00;101163.34;5091743;28;19959;-71
2021/10/13 04:55:03;;;;;;;;;;;;;;;3.22;100.00;101164.09;5092017;28;20036;-73
2021/10/13 04:57:29;;;;;;;;;;;;;;;3.27;100.00;101166.56;5091976;28;20022;-72
2021/10/13 04:59:55;;;;;;;;;;;;;;;3.29;100.00;101164.69;5091660;28;20026;-72
2021/10/13 05:02:22;;;;;;;;;;;;;;;3.32;100.00;101170.78;5091984;28;20031;-72
2021/10/13 05:04:48;;;;;;;;;;;;;;;3.34;100.00;101168.03;5091819;28;19963;-72
2021/10/13 05:07:14;;;;;;;;;;;;;;;3.36;100.00;101168.84;5091711;28;20027;-72
2021/10/13 05:09:41;;;;;;;;;;;;;;;3.39;100.00;101160.63;5092193;28;19963;-72
2021/10/13 05:12:08;;;;;;;;;;;;;;;3.43;100.00;101167.63;5090153;28;19924;-71
2021/10/13 05:14:34;;;;;;;;;;;;;;;3.46;100.00;101169.28;5091790;28;19928;-71
2021/10/13 05:17:01;;;;;;;;;;;;;;;3.46;100.00;101172.88;5091447;28;20455;-72
2021/10/13 05:19:27;;;;;;;;;;;;;;;3.48;100.00;101170.13;5091683;28;20006;-71
2021/10/13 05:21:53;;;;;;;;;;;;;;;3.48;100.00;101173.66;5094196;28;19962;-72
2021/10/13 05:24:20;;;;;;;;;;;;;;;3.51;100.00;101186.06;5091429;28;20023;-72
2021/10/13 05:26:46;;;;;;;;;;;;;;;3.52;100.00;101175.25;5091144;28;20387;-71
2021/10/13 05:29:14;;;;;;;;;;;;;;;3.55;100.00;101176.94;5091319;28;19928;-72
2021/10/13 05:31:40;;;;;;;;;;;;;;;3.58;100.00;101178.63;5091351;28;19974;-72
2021/10/13 05:34:06;;;;;;;;;;;;;;;3.62;100.00;101177.53;5091369;28;20035;-71
2021/10/13 05:36:32;;;;;;;;;;;;;;;3.65;100.00;101178.28;5091213;28;20015;-71
2021/10/13 05:38:59;;;;;;;;;;;;;;;3.67;100.00;101181.78;5091305;28;19967;-72
2021/10/13 05:41:25;;;;;;;;;;;;;;;3.70;100.00;101186.09;5091457;28;20022;-72
2021/10/13 05:43:51;;;;;;;;;;;;;;;3.73;100.00;101194.06;5091398;28;20010;-71
2021/10/13 05:46:19;;;;;;;;;;;;;;;3.76;100.00;101191.22;5091070;28;20394;-71
2021/10/13 05:48:45;;;;;;;;;;;;;;;3.79;100.00;101200.94;5090081;28;19964;-72
2021/10/13 05:51:11;;;;;;;;;;;;;;;3.79;100.00;101195.56;5091279;28;20113;-71
2021/10/13 05:53:38;;;;;;;;;;;;;;;3.81;100.00;101199.94;5091594;28;20019;-71
2021/10/13 05:56:04;;;;;;;;;;;;;;;3.82;100.00;101208.84;5091265;28;20027;-72
2021/10/13 05:58:31;;;;;;;;;;;;;;;3.87;100.00;101219.41;5091632;28;19978;-72
2021/10/13 06:00:57;;;;;;;;;;;;;;;3.87;100.00;101214.91;5091407;28;19925;-71
2021/10/13 06:03:25;;;;;;;;;;;;;;;3.90;100.00;101214.78;5091305;28;19947;-71
2021/10/13 06:05:51;;;;;;;;;;;;;;;3.94;100.00;101226.22;5090763;28;19924;-71
2021/10/13 06:08:17;;;;;;;;;;;;;;;3.95;100.00;101225.31;5091132;28;20018;-72
2021/10/13 06:10:44;;;;;;;;;;;;;;;3.95;100.00;101223.47;5091169;28;20541;-72
2021/10/13 06:13:10;;;;;;;;;;;;;;;3.98;100.00;101247.53;5094295;28;20368;-71
2021/10/13 06:15:36;;;;;;;;;;;;;;;4.02;100.00;101251.81;5095258;28;20015;-71
2021/10/13 06:18:03;;;;;;;;;;;;;;;4.08;100.00;101250.66;5094951;28;19924;-72
2021/10/13 06:20:31;;;;;;;;;;;;;;;4.11;100.00;101250.50;5095085;28;19928;-71
2021/10/13 06:22:57;;;;;;;;;;;;;;;4.14;100.00;101250.41;5094742;28;19924;-71
2021/10/13 06:25:23;;;;;;;;;;;;;;;4.15;100.00;101257.50;5095216;28;20019;-71
2021/10/13 06:27:50;;;;;;;;;;;;;;;4.18;100.00;101254.69;5094812;28;20026;-71
2021/10/13 06:30:16;;;;;;;;;;;;;;;4.24;100.00;101263.41;5095204;28;19931;-72
2021/10/13 06:32:42;;;;;;;;;;;;;;;4.28;100.00;101252.44;5095264;28;19928;-72
2021/10/13 06:35:09;;;;;;;;;;;;;;;4.31;100.00;101257.66;5094932;28;20015;-72
2021/10/13 06:37:36;;;;;;;;;;;;;;;4.33;100.00;101262.97;5095167;28;20011;-72
2021/10/13 06:40:03;;;;;;;;;;;;;;;4.35;100.00;101263.78;5094961;28;20014;-72
2021/10/13 06:42:30;;;;;;;;;;;;;;;4.41;100.00;101260.81;5094982;28;20359;-71
2021/10/13 06:44:56;;;;;;;;;;;;;;;4.47;100.00;101263.19;5094929;28;19924;-72
2021/10/13 06:47:22;;;;;;;;;;;;;;;4.53;100.00;101262.91;5095036;28;20010;-71
2021/10/13 06:49:48;;;;;;;;;;;;;;;4.59;100.00;101267.13;5094983;28;20419;-71
2021/10/13 06:52:15;;;;;;;;;;;;;;;4.65;100.00;101277.59;5094926;28;19963;-71
2021/10/13 06:54:43;;;;;;;;;;;;;;;4.78;100.00;101267.09;5095024;28;19924;-71
2021/10/13 06:57:09;;;;;;;;;;;;;;;4.98;100.00;101271.53;5094687;28;20028;-71
2021/10/13 06:59:35;;;;;;;;;;;;;;;5.27;100.00;101274.56;5094424;28;20027;-71
2021/10/13 07:02:02;;;;;;;;;;;;;;;5.41;100.00;101279.28;5093468;28;20022;-72
2021/10/13 07:04:28;;;;;;;;;;;;;;;5.50;100.00;101272.53;5094519;28;20030;-72
2021/10/13 07:06:55;;;;;;;;;;;;;;;5.51;100.00;101272.47;5094492;28;19924;-72
2021/10/13 07:09:21;;;;;;;;;;;;;;;5.50;100.00;101273.41;5094781;28;19925;-72
2021/10/13 07:11:49;;;;;;;;;;;;;;;5.51;100.00;101277.84;5094515;28;20026;-72
2021/10/13 07:14:16;;;;;;;;;;;;;;;5.53;100.00;101281.34;5094422;28;20480;-72
2021/10/13 07:16:42;;;;;;;;;;;;;;;5.58;100.00;101278.41;5094051;28;19924;-71
2021/10/13 07:19:08;;;;;;;;;;;;;;;5.63;100.00;101278.19;5094085;28;20015;-72
2021/10/13 07:21:34;;;;;;;;;;;;;;;5.66;100.00;101276.16;5094245;28;19924;-72
2021/10/13 07:24:01;;;;;;;;;;;;;;;5.69;100.00;101285.91;5093191;28;19955;-72
2021/10/13 07:26:27;;;;;;;;;;;;;;;5.72;100.00;101276.81;5093837;28;20277;-71
2021/10/13 07:28:55;;;;;;;;;;;;;;;5.77;100.00;101288.22;5096544;28;20003;-71
2021/10/13 07:31:22;;;;;;;;;;;;;;;5.83;100.00;101283.38;5094023;28;19924;-71
2021/10/13 07:33:48;;;;;;;;;;;;;;;5.84;100.00;101285.13;5093655;28;20030;-72
2021/10/13 07:36:14;;;;;;;;;;;;;;;5.99;100.00;101288.88;5093897;28;20018;-71
2021/10/13 07:38:41;;;;;;;;;;;;;;;6.05;100.00;101290.34;5094081;28;20010;-71
2021/10/13 07:41:07;;;;;;;;;;;;;;;6.10;100.00;101295.53;5093847;28;20022;-71
2021/10/13 07:43:34;;;;;;;;;;;;;;;6.22;100.00;101289.47;5093742;28;19986;-72
2021/10/13 07:46:01;;;;;;;;;;;;;;;6.35;100.00;101290.53;5093671;28;20314;-72
2021/10/13 07:48:27;;;;;;;;;;;;;;;6.38;100.00;101299.44;5093914;28;19928;-71
2021/10/13 07:50:55;;;;;;;;;;;;;;;6.39;100.00;101306.53;5093344;28;20370;-72
2021/10/13 07:53:21;;;;;;;;;;;;;;;6.43;100.00;101297.34;5093607;28;19931;-72
2021/10/13 07:55:48;;;;;;;;;;;;;;;6.36;100.00;101308.47;5093680;28;20284;-72
2021/10/13 07:58:14;;;;;;;;;;;;;;;6.32;100.00;101306.91;5093419;28;19924;-71
2021/10/13 08:00:40;;;;;;;;;;;;;;;6.31;100.00;101306.97;5093599;28;20023;-71
2021/10/13 08:03:08;;;;;;;;;;;;;;;6.59;100.00;101298.25;5093493;28;20018;-72
2021/10/13 08:05:34;;;;;;;;;;;;;;;7.56;100.00;101304.44;5093456;28;20458;-72
2021/10/13 08:08:00;;;;;;;;;;;;;;;8.19;100.00;101304.22;5093094;28;20340;-72
2021/10/13 08:10:27;;;;;;;;;;;;;;;8.31;100.00;101296.28;5093345;28;19967;-72
2021/10/13 08:12:53;;;;;;;;;;;;;;;8.46;100.00;101300.78;5093204;28;19946;-72
2021/10/13 08:15:19;;;;;;;;;;;;;;;8.34;100.00;101296.13;5093404;28;20023;-72
2021/10/13 08:17:45;;;;;;;;;;;;;;;8.32;100.00;101308.84;5093076;28;20018;-70
2021/10/13 08:20:14;;;;;;;;;;;;;;;8.16;100.00;101309.81;5091977;28;19931;-70
2021/10/13 08:22:40;;;;;;;;;;;;;;;8.00;100.00;101309.91;5093163;28;19934;-68
2021/10/13 08:25:07;;;;;;;;;;;;;;;8.08;100.00;101309.41;5092698;28;19963;-68
2021/10/13 08:27:34;;;;;;;;;;;;;;;8.11;100.00;101306.53;5092977;28;20418;-68
2021/10/13 08:30:00;;;;;;;;;;;;;;;8.38;100.00;101316.59;5093005;28;20014;-68
2021/10/13 08:32:26;;;;;;;;;;;;;;;9.20;100.00;101303.25;5092927;28;20032;-68
2021/10/13 08:34:52;;;;;;;;;;;;;;;10.19;100.00;101307.38;5092768;28;19930;-68
2021/10/13 08:37:20;;;;;;;;;;;;;;;10.81;100.00;101300.28;5092642;28;19958;-68
2021/10/13 08:39:46;;;;;;;;;;;;;;;11.47;100.00;101303.53;5092641;28;19959;-68
2021/10/13 08:42:12;;;;;;;;;;;;;;;11.93;100.00;101304.56;5092666;28;20414;-68
2021/10/13 08:44:41;;;;;;;;;;;;;;;11.86;100.00;101304.16;5092791;28;20018;-68
2021/10/13 08:47:09;;;;;;;;;;;;;;;12.19;100.00;101302.56;5092457;28;19924;-68
2021/10/13 08:49:35;;;;;;;;;;;;;;;12.36;100.00;101306.66;5092670;28;20023;-68
2021/10/13 08:52:07;;;;;;;;;;;;;;;12.58;100.00;101304.94;5092498;28;19924;-68
2021/10/13 08:54:34;;;;;;;;;;;;;;;12.18;100.00;101310.84;5092635;28;19946;-68
2021/10/13 08:57:01;;;;;;;;;;;;;;;12.21;100.00;101313.31;5092275;28;19946;-68
2021/10/13 08:59:40;;;;;;;;;;;;;;;12.40;100.00;101315.47;5092153;28;19967;-68
2021/10/13 09:02:07;;;;;;;;;;;;;;;12.29;100.00;101310.84;5092251;28;19927;-68
2021/10/13 09:04:33;;;;;;;;;;;;;;;11.64;100.00;101309.56;5092333;28;20014;-68
2021/10/13 09:07:01;;;;;;;;;;;;;;;11.58;100.00;101310.88;5092182;28;20016;-68
2021/10/13 09:09:27;;;;;;;;;;;;;;;11.63;100.00;101319.53;5092121;28;19931;-73
2021/10/13 09:11:54;;;;;;;;;;;;;;;11.84;100.00;101310.75;5092141;28;20354;-68
2021/10/13 09:14:22;;;;;;;;;;;;;;;12.03;100.00;101318.38;5092288;28;20015;-68
2021/10/13 09:16:56;;;;;;;;;;;;;;;12.69;100.00;101309.53;5091811;28;20367;-70
2021/10/13 09:19:23;;;;;;;;;;;;;;;13.22;100.00;101314.28;5090791;28;19924;-68
2021/10/13 09:21:51;;;;;;;;;;;;;;;13.36;100.00;101307.69;5091844;28;20023;-68
2021/10/13 09:24:17;;;;;;;;;;;;;;;13.79;100.00;101317.72;5092007;28;19924;-68
2021/10/13 09:26:44;;;;;;;;;;;;;;;13.63;100.00;101312.69;5091950;28;19975;-68
2021/10/13 09:29:11;;;;;;;;;;;;;;;13.31;100.00;101307.19;5091917;28;20454;-68
2021/10/13 09:31:38;;;;;;;;;;;;;;;13.53;100.00;101307.13;5091720;28;20015;-68
2021/10/13 09:34:05;;;;;;;;;;;;;;;13.28;100.00;101310.16;5093390;28;19978;-68
2021/10/13 09:36:35;;;;;;;;;;;;;;;13.30;100.00;101313.66;5091812;28;20018;-70
2021/10/13 09:39:05;;;;;;;;;;;;;;;12.97;100.00;101318.16;5091667;28;19928;-69
2021/10/13 09:41:32;;;;;;;;;;;;;;;12.99;100.00;101325.22;5091853;28;20383;-67
2021/10/13 09:44:13;;;;;;;;;;;;;;;12.76;100.00;101323.50;5091421;28;20038;-67
2021/10/13 09:46:41;;;;;;;;;;;;;;;12.32;100.00;101326.06;5091280;28;20011;-70
2021/10/13 09:49:07;;;;;;;;;;;;;;;12.49;100.00;101336.53;5091691;28;20447;-70
2021/10/13 09:51:36;;;;;;;;;;;;;;;13.21;100.00;101327.06;5091227;28;19967;-70
2021/10/13 09:54:06;;;;;;;;;;;;;;;13.45;100.00;101325.16;5091443;28;20027;-71
2021/10/13 09:56:33;;;;;;;;;;;;;;;13.28;100.00;101334.72;5091402;28;19966;-69
2021/10/13 09:59:07;;;;;;;;;;;;;;;13.28;100.00;101332.88;5091463;28;19924;-69
2021/10/13 10:01:34;;;;;;;;;;;;;;;13.50;100.00;101326.50;5090390;28;19971;-70
2021/10/13 10:04:02;;;;;;;;;;;;;;;13.82;100.00;101333.81;5091380;28;19927;-70
2021/10/13 10:06:29;;;;;;;;;;;;;;;14.13;100.00;101335.78;5091408;28;20011;-70
2021/10/13 10:08:59;;;;;;;;;;;;;;;13.87;100.00;101336.16;5091057;28;20018;-70
2021/10/13 10:11:27;;;;;;;;;;;;;;;13.89;100.00;101336.88;5091491;28;19931;-70
2021/10/13 10:13:53;;;;;;;;;;;;;;;14.07;100.00;101331.72;5091130;28;20449;-70
2021/10/13 10:16:26;;;;;;;;;;;;;;;14.38;100.00;101329.88;5091465;28;19977;-70
2021/10/13 10:18:52;;;;;;;;;;;;;;;14.32;100.00;101330.41;5091500;28;20018;-70
2021/10/13 10:21:21;;;;;;;;;;;;;;;14.53;100.00;101326.81;5090374;28;20380;-71
2021/10/13 10:23:48;;;;;;;;;;;;;;;15.07;100.00;101328.34;5091276;28;19955;-71
2021/10/13 10:26:29;;;;;;;;;;;;;;;15.11;100.00;101326.19;5091174;28;19930;-71
2021/10/13 10:28:57;;;;;;;;;;;;;;;14.81;100.00;101317.03;5090918;28;20015;-71
2021/10/13 10:31:36;;;;;;;;;;;;;;;14.66;100.00;101323.91;5091120;28;19931;-70
2021/10/13 10:34:16;;;;;;;;;;;;;;;14.70;100.00;101333.53;5091073;28;19924;-71
2021/10/13 10:37:01;;;;;;;;;;;;;;;14.03;100.00;101328.38;5090844;28;20324;-71
2021/10/13 10:39:42;;;;;;;;;;;;;;;13.98;100.00;101329.78;5091136;28;20006;-71
2021/10/13 10:42:10;;;;;;;;;;;;;;;14.31;100.00;101333.28;5090904;28;20366;-70
2021/10/13 10:44:45;;;;;;;;;;;;;;;14.56;100.00;101324.69;5091104;28;20014;-71
2021/10/13 10:47:12;;;;;;;;;;;;;;;13.74;100.00;101333.59;5090672;28;20032;-71
2021/10/13 10:50:03;;;;;;;;;;;;;;;13.22;100.00;101336.09;5091028;28;20023;-72
2021/10/13 10:52:29;;;;;;;;;;;;;;;12.71;100.00;101338.38;5075246;28;19928;-72
2021/10/13 10:54:57;;;;;;;;;;;;;;;12.41;100.00;101335.38;5090907;28;20454;-72
2021/10/13 10:57:31;;;;;;;;;;;;;;;12.16;100.00;101340.91;5090818;28;20383;-72
2021/10/13 10:59:58;;;;;;;;;;;;;;;13.00;100.00;101335.13;5093483;28;20459;-72
2021/10/13 11:02:25;;;;;;;;;;;;;;;13.84;100.00;101336.41;5095130;28;19924;-72
2021/10/13 11:05:00;;;;;;;;;;;;;;;14.24;100.00;101338.41;5094277;28;20366;-71
2021/10/13 11:07:27;;;;;;;;;;;;;;;13.89;100.00;101334.16;5094653;28;19924;-71
2021/10/13 11:09:58;;;;;;;;;;;;;;;13.62;100.00;101345.56;5094503;28;20463;-71
2021/10/13 11:12:24;;;;;;;;;;;;;;;13.27;100.00;101350.22;5093385;28;19975;-71
2021/10/13 11:15:06;;;;;;;;;;;;;;;12.92;100.00;101353.97;5094551;28;20023;-72
2021/10/13 11:17:33;;;;;;;;;;;;;;;12.65;100.00;101360.63;5094671;28;20027;-72
2021/10/13 11:20:06;;;;;;;;;;;;;;;12.27;100.00;101355.53;5094471;28;19960;-72
2021/10/13 11:22:33;;;;;;;;;;;;;;;12.10;100.00;101354.97;5094066;28;20030;-72
2021/10/13 11:25:00;;;;;;;;;;;;;;;12.59;100.00;101358.44;5094234;28;20022;-72
2021/10/13 11:27:26;;;;;;;;;;;;;;;13.19;100.00;101353.56;5094146;28;19924;-72
2021/10/13 11:29:54;;;;;;;;;;;;;;;13.71;100.00;101352.97;5094211;28;19967;-72
2021/10/13 11:32:23;;;;;;;;;;;;;;;14.30;100.00;101353.44;5096727;28;19943;-72
2021/10/13 11:34:56;;;;;;;;;;;;;;;14.53;100.00;101345.94;5094065;28;19924;-71
2021/10/13 11:37:23;;;;;;;;;;;;;;;14.47;100.00;101354.66;5093862;28;20026;-71
2021/10/13 11:39:50;;;;;;;;;;;;;;;14.57;100.00;101353.69;5094040;28;19959;-72
2021/10/13 11:42:17;;;;;;;;;;;;;;;13.51;100.00;101349.19;5093857;28;19963;-71
2021/10/13 11:44:47;;;;;;;;;;;;;;;13.02;100.00;101367.72;5093870;28;19924;-72
2021/10/13 11:47:15;;;;;;;;;;;;;;;12.60;100.00;101367.44;5093734;28;20014;-71
2021/10/13 11:49:57;;;;;;;;;;;;;;;12.42;100.00;101353.47;5093932;28;20028;-72
2021/10/13 11:52:23;;;;;;;;;;;;;;;12.83;100.00;101355.59;5094110;28;19967;-72
2021/10/13 11:54:57;;;;;;;;;;;;;;;12.63;100.00;101356.34;5097858;28;20367;-72
2021/10/13 11:57:24;;;;;;;;;;;;;;;12.22;100.00;101351.28;5093819;28;20588;-73
2021/10/13 12:00:08;;;;;;;;;;;;;;;12.07;100.00;101348.94;5093651;28;20031;-73
2021/10/13 12:02:35;;;;;;;;;;;;;;;12.02;100.00;101347.41;5093736;28;20398;-72
2021/10/13 12:05:04;;;;;;;;;;;;;;;13.18;100.00;101351.81;5093430;28;19928;-72
2021/10/13 12:07:30;;;;;;;;;;;;;;;14.36;100.00;101344.69;5093305;28;20371;-73
2021/10/13 12:09:58;;;;;;;;;;;;;;;15.41;100.00;101338.06;5093048;28;20016;-70
2021/10/13 12:12:24;;;;;;;;;;;;;;;15.26;100.00;101344.94;5093259;28;20365;-70
2021/10/13 12:14:50;;;;;;;;;;;;;;;14.52;100.00;101344.19;5092799;28;20026;-70
2021/10/13 12:17:24;;;;;;;;;;;;;;;14.11;100.00;101346.81;5092924;28;20022;-71
2021/10/13 12:19:52;;;;;;;;;;;;;;;13.83;100.00;101346.47;5093074;28;19944;-71
2021/10/13 12:22:18;;;;;;;;;;;;;;;14.49;100.00;101352.66;5093192;28;20010;-71
2021/10/13 12:24:44;;;;;;;;;;;;;;;14.42;100.00;101346.88;5093008;28;20023;-71
2021/10/13 12:27:11;;;;;;;;;;;;;;;13.93;100.00;101356.59;5092842;28;19924;-70
2021/10/13 12:29:38;;;;;;;;;;;;;;;13.35;100.00;101357.75;5093260;28;19934;-70
2021/10/13 12:32:14;;;;;;;;;;;;;;;13.33;100.00;101355.13;5092537;28;20015;-71
2021/10/13 12:34:40;;;;;;;;;;;;;;;13.26;100.00;101348.47;5092876;28;19924;-71
2021/10/13 12:37:08;;;;;;;;;;;;;;;13.78;100.00;101351.44;5092809;28;19928;-70